createdAt,value
2019-05-19T00:00:34.778Z,13.10
2019-05-19T00:06:37.164Z,13.00
2019-05-19T00:12:39.392Z,12.80
2019-05-19T00:18:41.533Z,12.70
2019-05-19T00:24:43.692Z,12.60
2019-05-19T00:30:45.812Z,12.60
2019-05-19T00:36:47.967Z,12.60
2019-05-19T00:42:50.135Z,12.50
2019-05-19T00:48:52.251Z,12.50
2019-05-19T00:54:54.449Z,12.30
2019-05-19T01:00:56.748Z,12.20
2019-05-19T01:06:59.217Z,12.10
2019-05-19T01:13:03.624Z,12.10
2019-05-19T01:19:05.844Z,12.10
2019-05-19T01:25:08.686Z,12.00
2019-05-19T01:31:10.848Z,12.10
2019-05-19T01:37:12.995Z,12.00
2019-05-19T01:43:15.296Z,12.00
2019-05-19T01:49:17.420Z,12.00
2019-05-19T01:55:19.708Z,11.90
2019-05-19T02:01:22.026Z,11.80
2019-05-19T02:07:24.342Z,11.80
2019-05-19T02:13:31.258Z,11.80
2019-05-19T02:19:33.665Z,11.80
2019-05-19T02:25:38.355Z,11.80
2019-05-19T02:31:40.552Z,11.80
2019-05-19T02:37:42.800Z,11.70
2019-05-19T02:43:46.860Z,11.60
2019-05-19T02:49:49.787Z,11.50
2019-05-19T02:55:52.280Z,11.50
2019-05-19T03:02:08.649Z,11.40
2019-05-19T03:08:30.316Z,11.50
2019-05-19T03:14:36.397Z,11.40
2019-05-19T03:20:38.618Z,11.50
2019-05-19T03:26:40.876Z,11.60
2019-05-19T03:32:46.033Z,11.70
2019-05-19T03:38:48.316Z,11.80
2019-05-19T03:44:52.595Z,11.90
2019-05-19T03:50:54.771Z,12.00
2019-05-19T03:56:57.083Z,12.00
2019-05-19T04:02:59.249Z,12.10
2019-05-19T04:09:01.400Z,12.20
2019-05-19T04:15:03.951Z,12.30
2019-05-19T04:21:06.153Z,12.40
2019-05-19T04:27:08.423Z,12.50
2019-05-19T04:33:10.614Z,12.50
2019-05-19T04:39:12.835Z,12.60
2019-05-19T04:45:15.368Z,12.70
2019-05-19T04:51:17.658Z,12.80
2019-05-19T04:57:19.818Z,13.20
2019-05-19T05:03:22.056Z,13.50
2019-05-19T05:09:24.179Z,14.10
2019-05-19T05:15:26.460Z,14.60
2019-05-19T05:21:29.028Z,14.80
2019-05-19T05:27:31.483Z,14.90
2019-05-19T05:33:33.843Z,15.20
2019-05-19T05:39:36.317Z,15.60
2019-05-19T05:45:38.535Z,16.30
2019-05-19T05:51:40.874Z,17.70
2019-05-19T05:57:43.187Z,20.70
2019-05-19T06:03:45.435Z,23.80
2019-05-19T06:09:47.708Z,25.40
2019-05-19T06:15:49.931Z,27.00
2019-05-19T06:21:52.751Z,28.80
2019-05-19T06:27:55.109Z,29.60
2019-05-19T06:33:57.583Z,27.20
2019-05-19T06:39:59.844Z,27.10
2019-05-19T06:46:02.132Z,27.60
2019-05-19T06:52:04.471Z,29.70
2019-05-19T06:58:08.879Z,29.70
2019-05-19T07:04:11.187Z,28.60
2019-05-19T07:10:13.807Z,27.70
2019-05-19T07:16:17.148Z,27.80
2019-05-19T07:22:19.645Z,26.40
2019-05-19T07:28:23.046Z,26.40
2019-05-19T07:34:25.244Z,27.20
2019-05-19T07:40:27.475Z,29.40
2019-05-19T07:46:29.873Z,29.50
2019-05-19T07:52:32.279Z,29.90
2019-05-19T07:58:34.643Z,31.40
2019-05-19T08:04:36.936Z,31.00
2019-05-19T08:10:39.107Z,27.90
2019-05-19T08:16:41.512Z,26.70
2019-05-19T08:22:43.709Z,28.40
2019-05-19T08:28:45.874Z,30.10
2019-05-19T08:34:49.416Z,28.30
2019-05-19T08:40:53.019Z,26.60
2019-05-19T08:46:55.714Z,25.50
2019-05-19T08:52:58.369Z,25.80
2019-05-19T08:59:00.632Z,26.40
2019-05-19T09:05:03.809Z,26.50
2019-05-19T09:11:06.075Z,25.40
2019-05-19T09:17:08.445Z,25.20
2019-05-19T09:23:10.836Z,25.00
2019-05-19T09:29:13.608Z,25.60
2019-05-19T09:35:16.140Z,27.20
2019-05-19T09:41:18.586Z,27.50
2019-05-19T09:47:20.980Z,28.50
2019-05-19T09:53:23.391Z,28.70
2019-05-19T09:59:25.892Z,26.90
2019-05-19T10:05:28.286Z,26.60
2019-05-19T10:12:00.122Z,26.80
2019-05-19T10:18:02.446Z,26.80
2019-05-19T10:24:06.080Z,26.50
2019-05-19T10:30:09.633Z,26.50
2019-05-19T10:36:12.187Z,26.20
2019-05-19T10:42:14.514Z,26.20
2019-05-19T10:48:16.793Z,26.60
2019-05-19T10:54:19.096Z,26.20
2019-05-19T11:00:21.410Z,25.30
2019-05-19T11:06:23.770Z,24.80
2019-05-19T11:12:26.077Z,24.70
2019-05-19T11:18:28.446Z,25.40
2019-05-19T11:24:30.735Z,25.10
2019-05-19T11:30:32.946Z,25.00
2019-05-19T11:36:35.240Z,24.40
2019-05-19T11:42:37.692Z,24.90
2019-05-19T11:48:41.074Z,24.90
2019-05-19T11:54:43.228Z,25.20
2019-05-19T12:00:45.537Z,25.10
2019-05-19T12:06:48.738Z,25.60
2019-05-19T12:12:51.207Z,25.60
2019-05-19T12:18:56.837Z,25.90
2019-05-19T12:24:57.440Z,25.70
2019-05-19T12:30:59.781Z,25.60
2019-05-19T12:37:02.108Z,25.80
2019-05-19T12:43:04.432Z,26.00
2019-05-19T12:49:06.908Z,25.80
2019-05-19T12:55:09.582Z,25.50
2019-05-19T13:01:12.047Z,25.70
2019-05-19T13:07:14.531Z,25.70
2019-05-19T13:13:17.000Z,26.00
2019-05-19T13:19:19.339Z,26.20
2019-05-19T13:25:21.551Z,26.20
2019-05-19T13:31:23.885Z,26.60
2019-05-19T13:37:26.264Z,26.80
2019-05-19T13:43:28.720Z,26.00
2019-05-19T13:49:31.149Z,25.40
2019-05-19T13:55:34.179Z,25.50
2019-05-19T14:01:37.306Z,25.50
2019-05-19T14:07:39.743Z,25.10
2019-05-19T14:13:42.313Z,24.80
2019-05-19T14:19:44.637Z,24.70
2019-05-19T14:25:46.976Z,24.40
2019-05-19T14:31:49.245Z,24.70
2019-05-19T14:37:51.633Z,24.40
2019-05-19T14:43:54.162Z,24.40
2019-05-19T14:49:56.483Z,24.20
2019-05-19T14:56:01.143Z,24.20
2019-05-19T15:02:03.554Z,24.40
2019-05-19T15:08:05.840Z,24.10
2019-05-19T15:14:07.989Z,24.00
2019-05-19T15:20:10.968Z,23.70
2019-05-19T15:26:14.262Z,23.80
2019-05-19T15:32:16.851Z,23.40
2019-05-19T15:38:19.416Z,23.40
2019-05-19T15:44:22.257Z,23.00
2019-05-19T15:50:25.038Z,22.90
2019-05-19T15:56:27.485Z,22.70
2019-05-19T16:02:29.803Z,22.60
2019-05-19T16:08:32.226Z,22.90
2019-05-19T16:14:34.619Z,23.10
2019-05-19T16:20:36.941Z,23.00
2019-05-19T16:26:39.361Z,23.10
2019-05-19T16:32:41.823Z,23.10
2019-05-19T16:38:44.184Z,23.10
2019-05-19T16:44:46.566Z,23.00
2019-05-19T16:50:49.028Z,23.10
2019-05-19T16:56:51.575Z,22.90
2019-05-19T17:02:54.141Z,22.70
2019-05-19T17:08:56.505Z,22.70
2019-05-19T17:14:58.720Z,22.30
2019-05-19T17:21:01.297Z,22.10
2019-05-19T17:27:05.977Z,21.80
2019-05-19T17:33:08.266Z,21.70
2019-05-19T17:39:10.796Z,21.70
2019-05-19T17:45:14.391Z,21.60
2019-05-19T17:51:17.775Z,21.50
2019-05-19T17:57:20.236Z,21.20
2019-05-19T18:03:24.433Z,21.00
2019-05-19T18:09:26.765Z,20.90
2019-05-19T18:15:29.072Z,20.80
2019-05-19T18:21:31.345Z,20.60
2019-05-19T18:27:33.951Z,20.40
2019-05-19T18:33:36.272Z,20.30
2019-05-19T18:39:38.566Z,20.20
2019-05-19T18:45:40.898Z,20.20
2019-05-19T18:51:43.241Z,19.90
2019-05-19T18:57:45.581Z,19.80
2019-05-19T19:03:48.057Z,19.70
2019-05-19T19:09:50.417Z,19.70
2019-05-19T19:15:52.645Z,19.60
2019-05-19T19:21:55.108Z,19.30
2019-05-19T19:27:57.615Z,19.20
2019-05-19T19:33:59.988Z,19.00
2019-05-19T19:40:03.855Z,18.90
2019-05-19T19:46:06.345Z,18.90
2019-05-19T19:52:09.880Z,18.80
2019-05-19T19:58:12.149Z,18.60
2019-05-19T20:04:14.621Z,18.50
2019-05-19T20:10:16.941Z,18.30
2019-05-19T20:16:19.479Z,18.10
2019-05-19T20:22:23.235Z,17.90
2019-05-19T20:28:25.735Z,17.70
2019-05-19T20:34:28.090Z,17.40
2019-05-19T20:40:30.488Z,17.20
2019-05-19T20:46:33.049Z,16.90
2019-05-19T20:52:35.421Z,16.70
2019-05-19T20:58:37.896Z,16.60
2019-05-19T21:04:40.787Z,16.40
2019-05-19T21:10:43.141Z,16.20
2019-05-19T21:16:45.391Z,16.10
2019-05-19T21:22:47.748Z,16.00
2019-05-19T21:28:50.065Z,15.80
2019-05-19T21:34:52.465Z,15.60
2019-05-19T21:40:54.884Z,15.40
2019-05-19T21:46:57.151Z,15.30
2019-05-19T21:52:59.481Z,15.10
2019-05-19T21:59:01.737Z,15.00
2019-05-19T22:05:04.124Z,14.90
2019-05-19T22:11:06.549Z,14.80
2019-05-19T22:17:08.782Z,14.60
2019-05-19T22:23:11.018Z,14.60
2019-05-19T22:29:13.357Z,14.40
2019-05-19T22:35:15.615Z,14.40
2019-05-19T22:41:17.952Z,14.20
2019-05-19T22:47:20.319Z,14.20
2019-05-19T22:53:23.093Z,14.10
2019-05-19T22:59:25.457Z,14.00
2019-05-19T23:05:27.863Z,13.90
2019-05-19T23:11:30.291Z,13.80
2019-05-19T23:17:32.548Z,13.80
2019-05-19T23:23:34.986Z,13.70
2019-05-19T23:29:37.187Z,13.70
2019-05-19T23:35:39.630Z,13.70
2019-05-19T23:41:41.989Z,13.60
2019-05-19T23:47:44.250Z,13.50
2019-05-19T23:53:46.539Z,13.40
2019-05-19T23:59:48.894Z,13.40
